createdAt,value
2022-11-16T00:01:22.813Z,10.98
2022-11-16T00:05:34.408Z,11.02
2022-11-16T00:09:46.676Z,11.45
2022-11-16T00:13:58.329Z,13.18
2022-11-16T00:18:09.983Z,11.27
2022-11-16T00:22:21.557Z,12.10
2022-11-16T00:26:33.211Z,14.38
2022-11-16T00:30:44.929Z,13.65
2022-11-16T00:34:56.543Z,16.65
2022-11-16T00:39:11.740Z,13.63
2022-11-16T00:43:23.395Z,13.90
2022-11-16T00:47:36.174Z,13.48
2022-11-16T00:51:47.983Z,15.15
2022-11-16T00:55:59.607Z,14.68
2022-11-16T01:00:11.882Z,13.77
2022-11-16T01:04:23.523Z,15.68
2022-11-16T01:08:37.282Z,16.58
2022-11-16T01:12:50.775Z,15.18
2022-11-16T01:17:02.401Z,15.02
2022-11-16T01:21:14.048Z,16.77
2022-11-16T01:25:25.667Z,15.90
2022-11-16T01:29:37.543Z,14.55
2022-11-16T01:33:49.252Z,13.48
2022-11-16T01:38:08.507Z,15.23
2022-11-16T01:42:24.722Z,13.98
2022-11-16T01:46:39.633Z,13.13
2022-11-16T01:50:56.386Z,14.48
2022-11-16T01:55:08.581Z,15.00
2022-11-16T01:59:32.914Z,13.18
2022-11-16T02:03:44.700Z,13.30
2022-11-16T02:08:22.205Z,13.80
2022-11-16T02:12:50.534Z,12.45
2022-11-16T02:17:32.155Z,13.45
2022-11-16T02:21:58.581Z,13.05
2022-11-16T02:26:37.676Z,12.98
2022-11-16T02:30:53.755Z,12.25
2022-11-16T02:35:16.593Z,13.75
2022-11-16T02:39:32.285Z,13.23
2022-11-16T02:43:48.958Z,14.43
2022-11-16T02:48:08.506Z,13.27
2022-11-16T02:52:23.452Z,14.07
2022-11-16T02:56:50.225Z,12.52
2022-11-16T03:01:15.872Z,12.43
2022-11-16T03:05:36.696Z,12.80
2022-11-16T03:09:54.515Z,13.32
2022-11-16T03:14:11.802Z,14.30
2022-11-16T03:18:28.975Z,13.88
2022-11-16T03:22:50.474Z,12.93
2022-11-16T03:27:16.727Z,13.90
2022-11-16T03:31:34.670Z,15.13
2022-11-16T03:35:59.072Z,13.75
2022-11-16T03:40:12.607Z,15.85
2022-11-16T03:44:24.632Z,14.98
2022-11-16T03:48:38.631Z,15.65
2022-11-16T03:52:56.519Z,15.18
2022-11-16T03:57:09.704Z,15.90
2022-11-16T04:01:21.477Z,17.15
2022-11-16T04:05:53.582Z,16.13
2022-11-16T04:10:24.333Z,16.75
2022-11-16T04:14:54.557Z,11.45
2022-11-16T04:19:28.045Z,12.15
2022-11-16T04:23:58.624Z,10.77
2022-11-16T04:28:13.659Z,10.43
2022-11-16T04:32:48.187Z,9.88
2022-11-16T04:37:19.715Z,9.27
2022-11-16T04:41:52.390Z,8.65
2022-11-16T04:46:23.238Z,6.13
2022-11-16T04:50:35.023Z,4.55
2022-11-16T04:54:47.111Z,4.78
2022-11-16T04:58:58.623Z,3.50
2022-11-16T05:03:10.658Z,4.90
2022-11-16T05:07:23.772Z,4.00
2022-11-16T05:11:38.540Z,4.45
2022-11-16T05:15:50.264Z,4.32
2022-11-16T05:20:21.034Z,3.58
2022-11-16T05:24:36.293Z,2.85
2022-11-16T05:28:49.593Z,2.88
2022-11-16T05:33:01.279Z,3.60
2022-11-16T05:37:16.829Z,2.88
2022-11-16T05:41:29.513Z,3.67
2022-11-16T05:45:43.434Z,3.92
2022-11-16T05:49:57.605Z,5.97
2022-11-16T05:54:13.802Z,4.05
2022-11-16T05:58:25.635Z,3.95
2022-11-16T06:02:38.191Z,5.60
2022-11-16T06:06:49.827Z,6.78
2022-11-16T06:11:08.857Z,8.15
2022-11-16T06:15:21.556Z,12.80
2022-11-16T06:19:34.657Z,6.20
2022-11-16T06:23:47.303Z,5.75
2022-11-16T06:28:04.034Z,5.68
2022-11-16T06:32:18.574Z,3.72
2022-11-16T06:36:30.399Z,4.97
2022-11-16T06:40:43.008Z,7.03
2022-11-16T06:44:54.620Z,6.47
2022-11-16T06:49:11.164Z,4.53
2022-11-16T06:53:28.809Z,3.88
2022-11-16T06:57:41.490Z,4.72
2022-11-16T07:01:53.625Z,2.90
2022-11-16T07:06:10.496Z,5.03
2022-11-16T07:10:24.465Z,5.28
2022-11-16T07:14:37.427Z,4.30
2022-11-16T07:18:50.702Z,5.03
2022-11-16T07:23:03.360Z,4.50
2022-11-16T07:27:14.935Z,5.47
2022-11-16T07:31:30.077Z,4.90
2022-11-16T07:36:13.973Z,6.17
2022-11-16T07:40:25.650Z,4.13
2022-11-16T07:44:38.972Z,6.10
2022-11-16T07:48:54.301Z,4.18
2022-11-16T07:53:29.423Z,4.82
2022-11-16T07:57:41.482Z,7.43
2022-11-16T08:01:55.733Z,3.77
2022-11-16T08:06:13.194Z,4.10
2022-11-16T08:10:24.828Z,5.20
2022-11-16T08:14:36.561Z,4.88
2022-11-16T08:18:48.922Z,5.23
2022-11-16T08:23:01.442Z,5.18
2022-11-16T08:27:17.466Z,4.63
2022-11-16T08:31:32.347Z,7.13
2022-11-16T08:35:57.277Z,9.20
2022-11-16T08:40:10.794Z,5.63
2022-11-16T08:44:24.542Z,4.63
2022-11-16T08:48:39.131Z,5.10
2022-11-16T08:52:51.421Z,4.10
2022-11-16T08:57:03.504Z,16.65
2022-11-16T09:01:19.538Z,6.72
2022-11-16T09:05:31.056Z,8.15
2022-11-16T09:09:42.557Z,4.70
2022-11-16T09:13:55.639Z,3.05
2022-11-16T09:18:07.344Z,3.80
2022-11-16T09:22:19.033Z,3.78
2022-11-16T09:26:31.238Z,4.97
2022-11-16T09:30:44.197Z,3.72
2022-11-16T09:34:55.839Z,4.53
2022-11-16T09:39:29.648Z,4.32
2022-11-16T09:43:54.355Z,2.78
2022-11-16T09:48:12.103Z,7.05
2022-11-16T09:52:33.340Z,2.88
2022-11-16T09:56:47.655Z,6.25
2022-11-16T10:01:16.051Z,3.97
2022-11-16T10:05:43.684Z,4.38
2022-11-16T10:09:56.246Z,3.53
2022-11-16T10:14:26.083Z,3.63
2022-11-16T10:18:49.084Z,4.28
2022-11-16T10:23:06.987Z,5.95
2022-11-16T10:27:52.885Z,3.50
2022-11-16T10:32:17.834Z,6.68
2022-11-16T10:36:32.596Z,3.65
2022-11-16T10:40:49.646Z,3.90
2022-11-16T10:45:11.647Z,3.40
2022-11-16T10:49:35.940Z,2.72
2022-11-16T10:53:47.708Z,3.85
2022-11-16T10:58:05.291Z,4.90
2022-11-16T11:02:20.480Z,4.70
2022-11-16T11:06:32.114Z,4.57
2022-11-16T11:10:44.054Z,5.18
2022-11-16T11:15:26.182Z,4.18
2022-11-16T11:19:38.297Z,6.00
2022-11-16T11:23:52.934Z,2.45
2022-11-16T11:28:31.974Z,2.15
2022-11-16T11:32:44.748Z,4.32
2022-11-16T11:37:05.125Z,2.80
2022-11-16T11:41:19.012Z,3.63
2022-11-16T11:45:45.359Z,2.83
2022-11-16T11:50:18.624Z,8.57
2022-11-16T11:54:35.900Z,3.42
2022-11-16T11:58:48.599Z,6.25
2022-11-16T12:03:22.732Z,4.18
2022-11-16T12:08:07.271Z,6.50
2022-11-16T12:12:31.378Z,5.13
2022-11-16T12:17:04.602Z,3.15
2022-11-16T12:22:03.141Z,4.38
2022-11-16T12:26:41.162Z,3.15
2022-11-16T12:30:55.728Z,2.03
2022-11-16T12:35:41.587Z,4.57
2022-11-16T12:40:20.374Z,6.20
2022-11-16T12:45:09.541Z,7.88
2022-11-16T12:49:33.036Z,2.40
2022-11-16T12:54:10.736Z,2.28
2022-11-16T12:58:27.620Z,6.80
2022-11-16T13:03:12.872Z,2.60
2022-11-16T13:07:44.198Z,7.85
2022-11-16T13:12:00.577Z,3.38
2022-11-16T13:16:17.231Z,2.25
2022-11-16T13:20:40.156Z,3.95
2022-11-16T13:25:12.962Z,2.90
2022-11-16T13:29:50.713Z,6.70
2022-11-16T13:34:07.028Z,2.30
2022-11-16T13:38:54.701Z,2.08
2022-11-16T13:43:09.301Z,3.60
2022-11-16T13:47:25.387Z,3.20
2022-11-16T13:51:37.087Z,4.97
2022-11-16T13:55:58.521Z,4.35
2022-11-16T14:00:11.979Z,1.70
2022-11-16T14:04:39.385Z,5.10
2022-11-16T14:08:58.583Z,3.45
2022-11-16T14:13:36.391Z,1.92
2022-11-16T14:18:03.291Z,3.40
2022-11-16T14:22:45.538Z,5.97
2022-11-16T14:27:30.265Z,4.05
2022-11-16T14:31:57.531Z,2.10
2022-11-16T14:36:10.506Z,3.92
2022-11-16T14:40:22.233Z,1.70
2022-11-16T14:44:39.065Z,1.83
2022-11-16T14:48:51.025Z,4.18
2022-11-16T14:53:06.569Z,2.70
2022-11-16T14:57:23.844Z,4.47
2022-11-16T15:01:39.225Z,2.50
2022-11-16T15:05:51.084Z,1.77
2022-11-16T15:10:02.897Z,3.03
2022-11-16T15:14:18.678Z,3.10
2022-11-16T15:18:30.383Z,4.57
2022-11-16T15:22:44.974Z,2.65
2022-11-16T15:27:06.572Z,2.40
2022-11-16T15:31:20.908Z,2.30
2022-11-16T15:35:35.550Z,7.57
2022-11-16T15:39:47.154Z,3.08
2022-11-16T15:44:16.535Z,6.00
2022-11-16T15:48:29.816Z,2.63
2022-11-16T15:52:45.687Z,4.20
2022-11-16T15:57:09.572Z,9.07
2022-11-16T16:01:22.346Z,2.63
2022-11-16T16:05:39.172Z,4.88
2022-11-16T16:10:19.548Z,2.05
2022-11-16T16:14:31.595Z,5.43
2022-11-16T16:18:44.719Z,2.28
2022-11-16T16:23:12.993Z,3.25
2022-11-16T16:27:27.185Z,2.60
2022-11-16T16:31:38.740Z,4.45
2022-11-16T16:35:50.979Z,5.07
2022-11-16T16:40:02.677Z,7.22
2022-11-16T16:44:15.374Z,8.60
2022-11-16T16:48:26.928Z,7.40
2022-11-16T16:52:38.469Z,8.20
2022-11-16T16:56:50.243Z,7.35
2022-11-16T17:01:05.082Z,4.40
2022-11-16T17:05:16.803Z,3.50
2022-11-16T17:09:28.416Z,9.10
2022-11-16T17:13:39.951Z,2.80
2022-11-16T17:17:51.506Z,5.22
2022-11-16T17:22:03.245Z,3.97
2022-11-16T17:26:14.831Z,8.45
2022-11-16T17:30:26.415Z,6.25
2022-11-16T17:34:39.901Z,3.23
2022-11-16T17:38:51.466Z,7.43
2022-11-16T17:43:03.261Z,8.77
2022-11-16T17:47:14.871Z,6.95
2022-11-16T17:51:27.112Z,10.88
2022-11-16T17:55:38.628Z,5.10
2022-11-16T17:59:50.128Z,5.60
2022-11-16T18:04:02.540Z,3.92
2022-11-16T18:08:14.054Z,4.60
2022-11-16T18:12:25.602Z,10.25
2022-11-16T18:16:37.248Z,5.10
2022-11-16T18:20:50.787Z,3.92
2022-11-16T18:25:02.310Z,4.00
2022-11-16T18:29:16.193Z,5.53
2022-11-16T18:33:30.460Z,5.43
2022-11-16T18:37:42.507Z,2.78
2022-11-16T18:41:55.341Z,6.67
2022-11-16T18:46:07.746Z,4.80
2022-11-16T18:50:26.503Z,5.05
2022-11-16T18:54:38.448Z,3.83
2022-11-16T18:58:51.980Z,3.00
2022-11-16T19:03:09.890Z,5.10
2022-11-16T19:07:22.731Z,4.23
2022-11-16T19:11:34.389Z,7.20
2022-11-16T19:15:46.313Z,3.03
2022-11-16T19:19:57.826Z,2.93
2022-11-16T19:24:09.546Z,4.27
2022-11-16T19:28:21.053Z,4.38
2022-11-16T19:32:32.627Z,4.82
2022-11-16T19:36:44.178Z,4.97
2022-11-16T19:40:55.668Z,3.40
2022-11-16T19:45:07.598Z,6.07
2022-11-16T19:49:20.610Z,9.17
2022-11-16T19:53:32.916Z,8.65
2022-11-16T19:57:44.616Z,5.28
2022-11-16T20:01:56.104Z,5.03
2022-11-16T20:06:29.320Z,5.28
2022-11-16T20:10:40.892Z,4.23
2022-11-16T20:14:52.587Z,10.50
2022-11-16T20:19:04.673Z,6.22
2022-11-16T20:23:16.229Z,10.00
2022-11-16T20:27:27.776Z,5.50
2022-11-16T20:31:42.550Z,4.47
2022-11-16T20:36:00.398Z,6.13
2022-11-16T20:40:12.311Z,4.30
2022-11-16T20:44:23.960Z,7.85
2022-11-16T20:48:36.180Z,3.85
2022-11-16T20:52:52.561Z,5.68
2022-11-16T20:57:04.753Z,2.85
2022-11-16T21:01:28.444Z,5.63
2022-11-16T21:05:44.845Z,3.35
2022-11-16T21:10:14.915Z,5.80
2022-11-16T21:14:26.569Z,2.97
2022-11-16T21:18:39.200Z,3.40
2022-11-16T21:22:50.955Z,5.80
2022-11-16T21:27:02.505Z,5.20
2022-11-16T21:31:19.640Z,7.90
2022-11-16T21:35:31.135Z,3.20
2022-11-16T21:39:42.644Z,4.30
2022-11-16T21:43:54.384Z,5.63
2022-11-16T21:48:06.105Z,4.83
2022-11-16T21:52:17.587Z,4.67
2022-11-16T21:56:29.157Z,2.97
2022-11-16T22:00:40.693Z,3.87
2022-11-16T22:05:10.889Z,5.90
2022-11-16T22:09:22.422Z,4.00
2022-11-16T22:13:34.830Z,3.53
2022-11-16T22:17:46.696Z,3.23
2022-11-16T22:21:59.411Z,2.30
2022-11-16T22:26:12.449Z,9.30
2022-11-16T22:30:24.013Z,5.60
2022-11-16T22:34:35.857Z,5.37
2022-11-16T22:38:47.485Z,4.40
2022-11-16T22:42:59.496Z,4.65
2022-11-16T22:47:11.112Z,3.93
2022-11-16T22:51:26.943Z,9.97
2022-11-16T22:55:38.800Z,5.90
2022-11-16T22:59:50.307Z,4.27
2022-11-16T23:04:01.904Z,4.40
2022-11-16T23:08:13.434Z,6.28
2022-11-16T23:12:43.550Z,4.18
2022-11-16T23:16:55.346Z,3.57
2022-11-16T23:21:25.554Z,4.50
2022-11-16T23:25:55.919Z,3.65
2022-11-16T23:30:12.491Z,4.93
2022-11-16T23:34:24.769Z,3.83
2022-11-16T23:38:36.277Z,8.27
2022-11-16T23:43:06.343Z,6.00
2022-11-16T23:47:17.914Z,5.93
2022-11-16T23:51:29.432Z,6.20
2022-11-16T23:55:41.674Z,8.83
2022-11-16T23:59:53.265Z,5.53
